Time;durP1;ratioP1;P1;durP2;ratioP2;P2;SDS_P1;SDS_P2;PMS_P1;PMS_P2;Temp;Humidity;BMP_temperature;BMP_pressure;BME280_temperature;BME280_humidity;BME280_pressure;Samples;Min_cycle;Max_cycle;Signal;HPM_P1;HPM_P2
2022/12/10 00:00:49;;;;;;;25.20;8.30;;;;;;;;;;6211120;23;20012;-96
2022/12/10 00:03:14;;;;;;;23.67;7.82;;;;;;;;;;6184867;23;20015;-95
2022/12/10 00:05:40;;;;;;;25.20;7.78;;;;;;;;;;6186108;23;20063;-96
2022/12/10 00:08:05;;;;;;;27.35;9.23;;;;;;;;;;6213039;23;20043;-94
2022/12/10 00:10:30;;;;;;;28.30;9.90;;;;;;;;;;6209807;23;20021;-94
2022/12/10 00:12:56;;;;;;;27.98;9.70;;;;;;;;;;6184585;23;20008;-95
2022/12/10 00:15:21;;;;;;;25.00;8.88;;;;;;;;;;6185047;23;20009;-94
2022/12/10 00:17:50;;;;;;;25.48;9.32;;;;;;;;;;6185389;23;20008;-95
2022/12/10 00:20:15;;;;;;;29.38;8.93;;;;;;;;;;6185529;23;20055;-95
2022/12/10 00:22:40;;;;;;;25.25;8.98;;;;;;;;;;6185550;23;20001;-95
2022/12/10 00:25:06;;;;;;;24.77;9.35;;;;;;;;;;6185776;23;20465;-95
2022/12/10 00:27:31;;;;;;;30.50;9.70;;;;;;;;;;6211388;23;20016;-94
2022/12/10 00:29:56;;;;;;;25.33;9.05;;;;;;;;;;6189125;23;20052;-96
2022/12/10 00:32:22;;;;;;;21.65;8.43;;;;;;;;;;6188423;23;20009;-95
2022/12/10 00:34:47;;;;;;;23.23;8.45;;;;;;;;;;6192280;23;20024;-95
2022/12/10 00:37:12;;;;;;;20.80;8.10;;;;;;;;;;6244646;23;20087;-95
2022/12/10 00:39:37;;;;;;;18.98;7.03;;;;;;;;;;6243917;23;20012;-95
2022/12/10 00:42:03;;;;;;;20.45;7.20;;;;;;;;;;6218249;23;20004;-96
2022/12/10 00:44:32;;;;;;;18.77;6.68;;;;;;;;;;6218487;23;20469;-94
2022/12/10 00:46:57;;;;;;;19.77;7.32;;;;;;;;;;6218339;23;20008;-93
2022/12/10 00:49:24;;;;;;;23.27;7.95;;;;;;;;;;6217948;23;20533;-95
2022/12/10 00:51:49;;;;;;;20.50;7.75;;;;;;;;;;6217867;23;20143;-95
2022/12/10 00:54:14;;;;;;;26.08;9.30;;;;;;;;;;6242913;23;20024;-94
2022/12/10 00:56:40;;;;;;;20.15;7.13;;;;;;;;;;6218177;23;20075;-95
2022/12/10 00:59:05;;;;;;;18.70;6.20;;;;;;;;;;6219713;23;20004;-95
2022/12/10 01:01:33;;;;;;;15.65;5.80;;;;;;;;;;6216160;23;20008;-95
2022/12/10 01:04:00;;;;;;;15.05;5.63;;;;;;;;;;6217218;23;20032;-95
2022/12/10 01:06:27;;;;;;;15.32;5.22;;;;;;;;;;6216992;23;20019;-95
2022/12/10 01:08:55;;;;;;;14.07;4.45;;;;;;;;;;6217743;23;20024;-95
2022/12/10 01:11:21;;;;;;;18.75;6.40;;;;;;;;;;6242957;23;20016;-95
2022/12/10 01:13:47;;;;;;;16.85;6.07;;;;;;;;;;6216712;23;20008;-95
2022/12/10 01:16:14;;;;;;;17.50;5.03;;;;;;;;;;6216792;23;20007;-96
2022/12/10 01:18:39;;;;;;;12.05;4.13;;;;;;;;;;6215787;23;20008;-95
2022/12/10 01:21:08;;;;;;;14.35;4.75;;;;;;;;;;6216758;23;20078;-95
2022/12/10 01:23:34;;;;;;;11.05;3.38;;;;;;;;;;6215480;23;20105;-95
2022/12/10 01:26:01;;;;;;;8.73;3.00;;;;;;;;;;6215131;23;20099;-95
2022/12/10 01:28:27;;;;;;;9.48;3.03;;;;;;;;;;6242433;23;20008;-96
2022/12/10 01:30:53;;;;;;;11.75;3.58;;;;;;;;;;6214686;23;20035;-95
2022/12/10 01:33:20;;;;;;;9.70;3.17;;;;;;;;;;6240559;23;20430;-96
2022/12/10 01:35:47;;;;;;;10.43;3.42;;;;;;;;;;6215161;23;20023;-95
2022/12/10 01:38:13;;;;;;;11.95;3.40;;;;;;;;;;6216326;23;20008;-96
2022/12/10 01:40:38;;;;;;;9.13;2.72;;;;;;;;;;6216652;23;20004;-95
2022/12/10 01:43:04;;;;;;;8.23;2.42;;;;;;;;;;6216637;23;20015;-96
2022/12/10 01:45:29;;;;;;;9.43;2.88;;;;;;;;;;6242394;23;20008;-96
2022/12/10 01:47:54;;;;;;;9.60;2.90;;;;;;;;;;6218497;23;20008;-95
2022/12/10 01:50:20;;;;;;;10.88;3.35;;;;;;;;;;6218288;23;20000;-95
2022/12/10 01:52:45;;;;;;;9.57;3.03;;;;;;;;;;6244548;23;20438;-96
2022/12/10 01:55:30;;;;;;;10.20;3.55;;;;;;;;;;6244318;23;20089;-95
2022/12/10 01:57:55;;;;;;;9.98;3.10;;;;;;;;;;6216603;23;20000;-95
2022/12/10 02:00:21;;;;;;;11.60;3.40;;;;;;;;;;6243637;23;20035;-96
2022/12/10 02:02:56;;;;;;;13.55;3.88;;;;;;;;;;6242695;23;20046;-95
2022/12/10 02:05:46;;;;;;;11.52;3.78;;;;;;;;;;6242379;23;20299;-95
2022/12/10 02:08:37;;;;;;;11.75;4.00;;;;;;;;;;6238242;23;20490;-95
2022/12/10 02:11:42;;;;;;;12.68;4.00;;;;;;;;;;6211894;23;20066;-94
2022/12/10 02:14:23;;;;;;;12.98;4.20;;;;;;;;;;6179993;23;20013;-95
2022/12/10 02:16:55;;;;;;;13.00;4.47;;;;;;;;;;6205893;23;20001;-95
2022/12/10 02:19:23;;;;;;;14.63;4.80;;;;;;;;;;6207072;23;20355;-95
2022/12/10 02:21:50;;;;;;;14.40;5.28;;;;;;;;;;6205243;23;20017;-94
2022/12/10 02:24:19;;;;;;;12.80;4.30;;;;;;;;;;6156275;23;20018;-95
2022/12/10 02:26:53;;;;;;;16.90;5.53;;;;;;;;;;6156594;23;20083;-96
2022/12/10 02:29:20;;;;;;;17.58;6.57;;;;;;;;;;6206801;23;20012;-95
2022/12/10 02:31:51;;;;;;;22.65;7.95;;;;;;;;;;6154746;23;20439;-96
2022/12/10 02:34:18;;;;;;;20.58;7.35;;;;;;;;;;6179080;23;20009;-95
2022/12/10 02:36:45;;;;;;;22.98;8.23;;;;;;;;;;6209867;23;20111;-94
2022/12/10 02:39:13;;;;;;;23.02;7.30;;;;;;;;;;6236287;23;20427;-94
2022/12/10 02:41:42;;;;;;;21.83;6.93;;;;;;;;;;6236575;23;20016;-96
2022/12/10 02:44:08;;;;;;;21.80;7.07;;;;;;;;;;6238030;23;20035;-95
2022/12/10 02:46:35;;;;;;;21.73;7.65;;;;;;;;;;6239693;23;20000;-96
2022/12/10 02:49:01;;;;;;;18.90;6.57;;;;;;;;;;6236904;22;20008;-96
2022/12/10 02:51:27;;;;;;;22.83;6.57;;;;;;;;;;6238027;23;20005;-96
2022/12/10 02:54:02;;;;;;;21.08;7.00;;;;;;;;;;6214248;23;20082;-95
2022/12/10 02:56:31;;;;;;;28.55;8.48;;;;;;;;;;6237940;23;20046;-96
2022/12/10 02:58:59;;;;;;;20.83;7.32;;;;;;;;;;6236402;23;20015;-95
2022/12/10 03:04:05;;;;;;;17.75;5.65;;;;;;;;;;6291997;22;19925;-95
2022/12/10 03:06:32;;;;;;;15.05;4.72;;;;;;;;;;6277626;22;20008;-95
2022/12/10 03:09:03;;;;;;;15.70;4.78;;;;;;;;;;6309760;22;20486;-95
2022/12/10 03:11:39;;;;;;;13.38;4.75;;;;;;;;;;6310138;22;20007;-95
2022/12/10 03:14:18;;;;;;;13.30;4.20;;;;;;;;;;6309682;22;20501;-95
2022/12/10 03:16:46;;;;;;;18.08;4.93;;;;;;;;;;6311492;22;20013;-95
2022/12/10 03:19:13;;;;;;;15.55;5.18;;;;;;;;;;6311159;22;20018;-95
2022/12/10 03:21:40;;;;;;;14.63;4.25;;;;;;;;;;6357907;22;20022;-96
2022/12/10 03:24:10;;;;;;;13.88;4.45;;;;;;;;;;6326004;22;19998;-96
2022/12/10 03:26:36;;;;;;;15.82;4.95;;;;;;;;;;6341534;22;20070;-95
2022/12/10 03:29:20;;;;;;;14.35;4.63;;;;;;;;;;6316059;22;20007;-95
2022/12/10 03:31:46;;;;;;;15.30;4.85;;;;;;;;;;6317372;22;19979;-95
2022/12/10 03:34:11;;;;;;;12.98;4.68;;;;;;;;;;6331752;22;20014;-95
2022/12/10 03:36:38;;;;;;;11.82;3.97;;;;;;;;;;6323277;22;20075;-94
2022/12/10 03:39:04;;;;;;;13.52;4.90;;;;;;;;;;6312774;22;20003;-95
2022/12/10 03:41:30;;;;;;;14.35;4.80;;;;;;;;;;6311469;22;20082;-95
2022/12/10 03:43:56;;;;;;;13.02;4.82;;;;;;;;;;6310662;22;20003;-94
2022/12/10 03:46:22;;;;;;;11.82;4.50;;;;;;;;;;6309240;22;20085;-95
2022/12/10 03:48:48;;;;;;;14.20;4.18;;;;;;;;;;6310381;22;20010;-95
2022/12/10 03:51:16;;;;;;;11.32;4.00;;;;;;;;;;6311105;22;20003;-95
2022/12/10 03:53:41;;;;;;;11.98;3.70;;;;;;;;;;6338038;22;20022;-95
2022/12/10 03:56:07;;;;;;;10.82;3.75;;;;;;;;;;6311572;22;20432;-95
2022/12/10 03:58:32;;;;;;;10.38;3.67;;;;;;;;;;6311470;22;20003;-94
2022/12/10 04:00:57;;;;;;;11.40;3.88;;;;;;;;;;6312815;22;20051;-94
2022/12/10 04:03:26;;;;;;;10.85;4.10;;;;;;;;;;6305034;22;20348;-94
2022/12/10 04:06:14;;;;;;;11.80;4.15;;;;;;;;;;6305283;22;20436;-96
2022/12/10 04:08:40;;;;;;;11.65;3.92;;;;;;;;;;6302631;22;20003;-95
2022/12/10 04:11:06;;;;;;;9.55;3.42;;;;;;;;;;6303432;22;20713;-94
2022/12/10 04:16:29;;;;;;;10.25;3.55;;;;;;;;;;6304472;22;20025;-95
2022/12/10 04:18:55;;;;;;;10.38;3.88;;;;;;;;;;6299101;22;20424;-95
2022/12/10 04:26:51;;;;;;;14.00;4.88;;;;;;;;;;6300104;22;20150;-95
2022/12/10 04:29:17;;;;;;;10.40;4.03;;;;;;;;;;6300156;22;20014;-96
2022/12/10 04:31:42;;;;;;;13.60;4.55;;;;;;;;;;6298468;22;20025;-96
2022/12/10 04:34:07;;;;;;;13.98;4.53;;;;;;;;;;6299764;22;20035;-95
2022/12/10 04:36:33;;;;;;;11.57;4.63;;;;;;;;;;6298460;22;20003;-96
2022/12/10 04:38:58;;;;;;;13.77;4.95;;;;;;;;;;6299588;22;20010;-94
2022/12/10 04:41:23;;;;;;;13.38;5.68;;;;;;;;;;6299789;22;20317;-94
2022/12/10 04:43:49;;;;;;;12.32;4.65;;;;;;;;;;6299260;22;20098;-95
2022/12/10 04:46:14;;;;;;;11.65;4.97;;;;;;;;;;6298138;22;20467;-94
2022/12/10 04:48:39;;;;;;;10.88;4.40;;;;;;;;;;6297759;22;20333;-94
2022/12/10 04:51:04;;;;;;;11.55;4.43;;;;;;;;;;6299301;22;20064;-94
2022/12/10 04:53:30;;;;;;;12.15;4.35;;;;;;;;;;6299451;22;20027;-93
2022/12/10 04:55:55;;;;;;;11.43;4.65;;;;;;;;;;6297078;22;20056;-96
2022/12/10 04:58:20;;;;;;;10.80;3.67;;;;;;;;;;6298814;22;20002;-96
2022/12/10 05:00:45;;;;;;;9.10;3.53;;;;;;;;;;6297501;22;20007;-94
2022/12/10 05:03:11;;;;;;;11.10;4.20;;;;;;;;;;6298536;22;20466;-95
2022/12/10 05:05:36;;;;;;;11.45;3.97;;;;;;;;;;6304142;22;20003;-95
2022/12/10 05:08:02;;;;;;;10.75;4.30;;;;;;;;;;6303643;22;20078;-94
2022/12/10 05:10:27;;;;;;;9.75;4.00;;;;;;;;;;6302263;22;20094;-94
2022/12/10 05:12:52;;;;;;;9.70;3.78;;;;;;;;;;6302455;22;20007;-95
2022/12/10 05:15:17;;;;;;;10.07;3.97;;;;;;;;;;6302509;22;20004;-96
2022/12/10 05:17:43;;;;;;;10.90;4.15;;;;;;;;;;6302281;22;20444;-95
2022/12/10 05:20:08;;;;;;;10.20;3.90;;;;;;;;;;6300436;22;20432;-95
2022/12/10 05:25:17;;;;;;;9.63;3.80;;;;;;;;;;6305060;22;20014;-94
2022/12/10 05:27:43;;;;;;;10.52;3.72;;;;;;;;;;6302085;22;20023;-95
2022/12/10 05:30:09;;;;;;;10.80;4.07;;;;;;;;;;6302479;22;20017;-95
2022/12/10 05:32:34;;;;;;;11.90;4.00;;;;;;;;;;6301007;22;20254;-94
2022/12/10 05:35:01;;;;;;;10.63;4.30;;;;;;;;;;6302430;22;20094;-95
2022/12/10 05:37:27;;;;;;;11.98;4.13;;;;;;;;;;6302629;22;20006;-96
2022/12/10 05:39:52;;;;;;;12.43;4.50;;;;;;;;;;6305838;22;20038;-95
2022/12/10 05:42:17;;;;;;;12.43;4.88;;;;;;;;;;6317280;22;19999;-94
2022/12/10 05:44:55;;;;;;;11.45;4.50;;;;;;;;;;6333074;22;20007;-94
2022/12/10 05:47:20;;;;;;;11.07;4.50;;;;;;;;;;6309512;22;20007;-94
2022/12/10 05:49:47;;;;;;;12.32;4.47;;;;;;;;;;6304648;22;20007;-93
2022/12/10 05:52:12;;;;;;;12.75;5.93;;;;;;;;;;6305596;22;20031;-96
2022/12/10 05:54:37;;;;;;;13.00;5.55;;;;;;;;;;6329903;22;20003;-93
2022/12/10 05:57:02;;;;;;;14.20;6.18;;;;;;;;;;6326957;22;20008;-93
2022/12/10 05:59:28;;;;;;;13.95;5.45;;;;;;;;;;6303324;22;20007;-93
2022/12/10 06:01:56;;;;;;;12.30;4.70;;;;;;;;;;6304928;22;20351;-94
2022/12/10 06:04:21;;;;;;;13.20;5.30;;;;;;;;;;6273675;22;20330;-94
2022/12/10 06:06:49;;;;;;;11.68;5.10;;;;;;;;;;6277935;22;20349;-94
2022/12/10 06:09:15;;;;;;;67.03;11.13;;;;;;;;;;6277246;22;20004;-94
2022/12/10 06:11:41;;;;;;;439.17;44.47;;;;;;;;;;6276938;22;20562;-94
2022/12/10 06:14:06;;;;;;;254.80;23.70;;;;;;;;;;6277662;22;20015;-95
2022/12/10 06:16:31;;;;;;;15.40;4.45;;;;;;;;;;6276700;22;20364;-94
2022/12/10 06:18:57;;;;;;;12.07;4.22;;;;;;;;;;6277294;22;20002;-96
2022/12/10 06:21:22;;;;;;;67.07;7.90;;;;;;;;;;6276725;22;20106;-94
2022/12/10 06:23:48;;;;;;;23.38;5.53;;;;;;;;;;6276277;22;20006;-95
2022/12/10 06:26:15;;;;;;;239.77;17.90;;;;;;;;;;6275620;22;20019;-94
2022/12/10 06:28:41;;;;;;;127.70;12.63;;;;;;;;;;6274953;22;20006;-95
2022/12/10 06:31:07;;;;;;;15.85;5.90;;;;;;;;;;6277836;22;20011;-93
2022/12/10 06:33:33;;;;;;;14.50;5.60;;;;;;;;;;6273379;22;20719;-95
2022/12/10 06:35:58;;;;;;;12.95;5.15;;;;;;;;;;6277886;22;20078;-96
2022/12/10 06:38:23;;;;;;;31.92;7.03;;;;;;;;;;6277506;22;20006;-94
2022/12/10 06:40:49;;;;;;;18.65;4.90;;;;;;;;;;6275126;22;20050;-95
2022/12/10 06:43:14;;;;;;;33.15;4.82;;;;;;;;;;6276814;22;20007;-96
2022/12/10 06:45:40;;;;;;;10.70;3.70;;;;;;;;;;6277713;22;20016;-96
2022/12/10 06:48:06;;;;;;;40.70;6.05;;;;;;;;;;6277530;22;20015;-96
2022/12/10 06:50:34;;;;;;;9.25;3.30;;;;;;;;;;6276069;22;20027;-96
2022/12/10 06:53:13;;;;;;;10.35;4.50;;;;;;;;;;6275711;22;20038;-96
2022/12/10 06:55:39;;;;;;;26.60;4.75;;;;;;;;;;6276680;22;19992;-96
2022/12/10 06:58:04;;;;;;;138.57;11.95;;;;;;;;;;6276251;22;20056;-96
2022/12/10 07:00:29;;;;;;;8.95;2.90;;;;;;;;;;6274917;22;20003;-95
2022/12/10 07:02:55;;;;;;;50.58;6.00;;;;;;;;;;6285372;22;20031;-96
2022/12/10 07:05:22;;;;;;;16.17;4.22;;;;;;;;;;6305802;22;20706;-96
2022/12/10 07:07:49;;;;;;;8.55;3.45;;;;;;;;;;6304579;22;20038;-96
2022/12/10 07:10:15;;;;;;;62.08;6.85;;;;;;;;;;6305341;22;20013;-94
2022/12/10 07:12:40;;;;;;;17.83;4.15;;;;;;;;;;6304566;22;20042;-93
2022/12/10 07:15:06;;;;;;;10.82;3.47;;;;;;;;;;6303228;22;20049;-93
2022/12/10 07:17:31;;;;;;;11.98;3.33;;;;;;;;;;6303267;22;20000;-93
2022/12/10 07:20:02;;;;;;;10.35;3.67;;;;;;;;;;6302315;22;20018;-93
2022/12/10 07:22:27;;;;;;;8.65;2.95;;;;;;;;;;6302538;22;20375;-94
2022/12/10 07:24:52;;;;;;;15.77;3.83;;;;;;;;;;6304057;22;20007;-95
2022/12/10 07:27:18;;;;;;;9.25;2.95;;;;;;;;;;6302915;22;20007;-94
2022/12/10 07:29:43;;;;;;;167.88;13.75;;;;;;;;;;6298987;22;20022;-94
2022/12/10 07:32:08;;;;;;;8.10;3.08;;;;;;;;;;6300155;22;20011;-93
2022/12/10 07:34:34;;;;;;;9.98;3.25;;;;;;;;;;6300069;22;20029;-93
2022/12/10 07:36:59;;;;;;;62.78;6.45;;;;;;;;;;6302125;22;20003;-94
2022/12/10 07:39:24;;;;;;;9.48;2.70;;;;;;;;;;6303055;22;20003;-93
2022/12/10 07:41:51;;;;;;;25.38;3.53;;;;;;;;;;6302878;22;20007;-93
2022/12/10 07:44:18;;;;;;;20.73;3.40;;;;;;;;;;6302879;22;20007;-94
2022/12/10 07:46:43;;;;;;;10.32;3.15;;;;;;;;;;6297524;22;20011;-93
2022/12/10 07:49:09;;;;;;;13.07;3.15;;;;;;;;;;6297653;22;20011;-92
2022/12/10 07:51:34;;;;;;;9.65;2.63;;;;;;;;;;6300558;22;20107;-92
2022/12/10 07:54:01;;;;;;;37.13;5.38;;;;;;;;;;6303885;22;20007;-93
2022/12/10 07:56:26;;;;;;;20.60;4.40;;;;;;;;;;6302291;22;20019;-93
2022/12/10 07:58:52;;;;;;;18.42;4.18;;;;;;;;;;6302317;22;20003;-93
2022/12/10 08:01:19;;;;;;;8.77;3.20;;;;;;;;;;6306038;22;20067;-94
2022/12/10 08:03:45;;;;;;;11.60;3.60;;;;;;;;;;6321132;22;20011;-95
2022/12/10 08:06:13;;;;;;;9.52;3.28;;;;;;;;;;6316031;22;20009;-94
2022/12/10 08:08:39;;;;;;;13.05;3.72;;;;;;;;;;6302131;22;20080;-93
2022/12/10 08:11:05;;;;;;;10.00;3.05;;;;;;;;;;6305149;22;20049;-94
2022/12/10 08:13:30;;;;;;;63.28;5.82;;;;;;;;;;6315489;22;20003;-95
2022/12/10 08:16:07;;;;;;;8.88;2.60;;;;;;;;;;6323598;22;20519;-94
2022/12/10 08:18:32;;;;;;;40.60;5.07;;;;;;;;;;6305745;22;20455;-94
2022/12/10 08:21:05;;;;;;;15.75;4.18;;;;;;;;;;6304456;22;20007;-96
2022/12/10 08:23:31;;;;;;;8.38;3.13;;;;;;;;;;6303512;22;20034;-94
2022/12/10 08:25:57;;;;;;;10.18;3.65;;;;;;;;;;6304660;22;20203;-95
2022/12/10 08:28:22;;;;;;;9.90;3.92;;;;;;;;;;6300078;22;20007;-94
2022/12/10 08:30:48;;;;;;;32.30;5.03;;;;;;;;;;6303729;22;20468;-94
2022/12/10 08:33:19;;;;;;;47.22;6.18;;;;;;;;;;6301423;22;20010;-93
2022/12/10 08:35:44;;;;;;;11.43;3.50;;;;;;;;;;6303888;22;19999;-94
2022/12/10 08:38:09;;;;;;;9.88;3.67;;;;;;;;;;6303400;22;20092;-93
2022/12/10 08:40:38;;;;;;;19.95;4.65;;;;;;;;;;6304580;22;20007;-94
2022/12/10 08:43:03;;;;;;;38.42;5.97;;;;;;;;;;6302595;22;20084;-92
2022/12/10 08:45:29;;;;;;;11.45;4.60;;;;;;;;;;6303803;22;20055;-94
2022/12/10 08:47:54;;;;;;;14.70;5.85;;;;;;;;;;6301785;22;20010;-94
2022/12/10 08:50:20;;;;;;;16.45;6.90;;;;;;;;;;6303393;22;20731;-94
2022/12/10 08:52:45;;;;;;;16.88;7.90;;;;;;;;;;6329210;22;20102;-94
2022/12/10 08:55:10;;;;;;;26.65;10.05;;;;;;;;;;6303362;22;20004;-94
2022/12/10 08:57:36;;;;;;;23.15;10.13;;;;;;;;;;6302887;22;20007;-94
2022/12/10 09:00:02;;;;;;;20.80;8.55;;;;;;;;;;6302674;22;20078;-93
2022/12/10 09:02:27;;;;;;;63.10;9.27;;;;;;;;;;6310885;22;20401;-95
2022/12/10 09:04:52;;;;;;;16.15;6.60;;;;;;;;;;6336193;22;20002;-93
2022/12/10 09:07:18;;;;;;;17.02;6.80;;;;;;;;;;6308102;22;20014;-93
2022/12/10 09:09:43;;;;;;;17.27;7.30;;;;;;;;;;6308394;22;20011;-94
2022/12/10 09:12:09;;;;;;;16.38;6.78;;;;;;;;;;6307127;22;20021;-92
2022/12/10 09:14:35;;;;;;;15.38;6.82;;;;;;;;;;6336151;22;19999;-93
2022/12/10 09:17:02;;;;;;;17.95;7.07;;;;;;;;;;6307298;22;20013;-94
2022/12/10 09:19:28;;;;;;;17.38;7.13;;;;;;;;;;6307154;22;20007;-93
2022/12/10 09:21:55;;;;;;;14.82;6.13;;;;;;;;;;6307828;22;19998;-94
2022/12/10 09:24:20;;;;;;;15.88;6.53;;;;;;;;;;6307860;22;20010;-94
2022/12/10 09:26:46;;;;;;;15.63;6.47;;;;;;;;;;6308282;22;20074;-94
2022/12/10 09:29:13;;;;;;;14.52;5.53;;;;;;;;;;6307468;22;20177;-94
2022/12/10 09:31:38;;;;;;;12.82;5.45;;;;;;;;;;6307957;22;20014;-93
2022/12/10 09:34:05;;;;;;;15.13;6.35;;;;;;;;;;6281284;22;20003;-93
2022/12/10 09:36:30;;;;;;;14.55;5.63;;;;;;;;;;6308003;22;20009;-94
2022/12/10 09:38:55;;;;;;;13.85;5.40;;;;;;;;;;6334810;22;20090;-94
2022/12/10 09:41:38;;;;;;;12.45;5.68;;;;;;;;;;6307998;22;20011;-94
2022/12/10 09:44:10;;;;;;;14.05;6.07;;;;;;;;;;6308783;22;20011;-93
2022/12/10 09:46:52;;;;;;;13.05;5.55;;;;;;;;;;6335153;22;20007;-94
2022/12/10 09:49:17;;;;;;;14.63;6.53;;;;;;;;;;6307534;22;20007;-93
2022/12/10 09:51:42;;;;;;;16.33;6.53;;;;;;;;;;6333430;22;20003;-93
2022/12/10 09:54:23;;;;;;;13.52;5.90;;;;;;;;;;6308150;22;20010;-94
2022/12/10 09:56:49;;;;;;;13.23;5.65;;;;;;;;;;6333637;22;20219;-93
2022/12/10 09:59:30;;;;;;;13.00;5.20;;;;;;;;;;6336687;22;20128;-94
2022/12/10 10:02:21;;;;;;;12.60;4.97;;;;;;;;;;6310294;22;20003;-94
2022/12/10 10:04:48;;;;;;;12.93;4.63;;;;;;;;;;6319213;22;20378;-95
2022/12/10 10:07:33;;;;;;;11.82;4.70;;;;;;;;;;6308143;22;20014;-94
2022/12/10 10:10:00;;;;;;;11.63;4.53;;;;;;;;;;6331246;22;20011;-93
2022/12/10 10:12:30;;;;;;;11.45;4.97;;;;;;;;;;6305488;22;20022;-94
2022/12/10 10:14:56;;;;;;;12.27;4.80;;;;;;;;;;6301302;22;20044;-94
2022/12/10 10:17:32;;;;;;;12.32;5.28;;;;;;;;;;6335170;22;19995;-94
2022/12/10 10:19:57;;;;;;;13.88;5.78;;;;;;;;;;6328753;22;19990;-93
2022/12/10 10:22:23;;;;;;;13.68;5.93;;;;;;;;;;6321078;22;20494;-93
2022/12/10 10:24:49;;;;;;;13.98;5.65;;;;;;;;;;6309545;22;20007;-93
2022/12/10 10:27:15;;;;;;;15.85;6.32;;;;;;;;;;6312471;22;19999;-96
2022/12/10 10:29:42;;;;;;;12.73;5.70;;;;;;;;;;6325726;22;20436;-92
2022/12/10 10:32:13;;;;;;;13.70;5.65;;;;;;;;;;6356178;22;19998;-93
2022/12/10 10:34:39;;;;;;;15.93;6.13;;;;;;;;;;6334101;22;20022;-95
2022/12/10 10:37:05;;;;;;;12.75;5.70;;;;;;;;;;6309688;22;20089;-95
2022/12/10 10:39:31;;;;;;;14.40;5.85;;;;;;;;;;6308672;22;20104;-93
2022/12/10 10:41:57;;;;;;;12.80;5.32;;;;;;;;;;6309722;22;20002;-93
2022/12/10 10:44:24;;;;;;;13.23;5.82;;;;;;;;;;6308652;22;20010;-95
2022/12/10 10:46:52;;;;;;;11.20;5.03;;;;;;;;;;6311206;22;20031;-94
2022/12/10 10:49:26;;;;;;;12.80;5.22;;;;;;;;;;6310300;22;20014;-95
2022/12/10 10:51:59;;;;;;;12.27;4.85;;;;;;;;;;6336703;22;20331;-93
2022/12/10 10:54:37;;;;;;;12.15;5.60;;;;;;;;;;6311472;22;19999;-95
2022/12/10 10:57:04;;;;;;;12.68;5.28;;;;;;;;;;6310455;22;20314;-94
2022/12/10 10:59:35;;;;;;;11.35;5.05;;;;;;;;;;6311343;22;20100;-94
2022/12/10 11:02:08;;;;;;;14.23;5.78;;;;;;;;;;6310687;22;20760;-94
2022/12/10 11:04:44;;;;;;;20.23;8.65;;;;;;;;;;6310129;22;20011;-95
2022/12/10 11:07:18;;;;;;;20.73;9.15;;;;;;;;;;6311308;22;20776;-93
2022/12/10 11:09:44;;;;;;;25.65;10.68;;;;;;;;;;6310598;22;20013;-95
2022/12/10 11:12:30;;;;;;;28.05;10.65;;;;;;;;;;6310175;22;20436;-96
2022/12/10 11:14:55;;;;;;;19.33;7.05;;;;;;;;;;6313755;22;20025;-96
2022/12/10 11:17:22;;;;;;;17.02;6.43;;;;;;;;;;6312273;22;20409;-96
2022/12/10 11:19:53;;;;;;;13.25;6.47;;;;;;;;;;6311360;22;20003;-94
2022/12/10 11:22:23;;;;;;;13.40;6.20;;;;;;;;;;6337594;22;20029;-95
2022/12/10 11:24:49;;;;;;;12.63;5.43;;;;;;;;;;6310765;22;20006;-95
2022/12/10 11:27:24;;;;;;;8.45;3.65;;;;;;;;;;6311183;22;19994;-96
2022/12/10 11:30:11;;;;;;;8.40;3.30;;;;;;;;;;6311075;22;20094;-96
2022/12/10 11:32:41;;;;;;;10.25;4.13;;;;;;;;;;6310602;22;19991;-96
2022/12/10 11:35:16;;;;;;;12.52;4.30;;;;;;;;;;6309930;22;20024;-95
2022/12/10 11:37:51;;;;;;;10.82;4.75;;;;;;;;;;6337867;22;20059;-95
2022/12/10 11:40:32;;;;;;;15.40;5.97;;;;;;;;;;6311046;22;19999;-96
2022/12/10 11:43:22;;;;;;;10.23;4.57;;;;;;;;;;6338447;22;20343;-93
2022/12/10 11:45:50;;;;;;;10.45;3.58;;;;;;;;;;6311724;22;20006;-95
2022/12/10 11:48:36;;;;;;;27.90;5.00;;;;;;;;;;6338215;22;20340;-96
2022/12/10 11:51:19;;;;;;;9.65;3.75;;;;;;;;;;6339341;22;20420;-95
2022/12/10 11:54:06;;;;;;;10.70;3.92;;;;;;;;;;6309675;22;20023;-95
2022/12/10 11:56:38;;;;;;;12.35;4.25;;;;;;;;;;6336275;22;19994;-95
2022/12/10 11:59:04;;;;;;;10.50;4.38;;;;;;;;;;6310191;22;20026;-95
2022/12/10 12:01:41;;;;;;;8.85;3.85;;;;;;;;;;6335862;22;20719;-94
2022/12/10 12:04:26;;;;;;;9.77;3.63;;;;;;;;;;6310292;22;20444;-96
2022/12/10 12:06:51;;;;;;;10.68;4.40;;;;;;;;;;6311527;22;20023;-95
2022/12/10 12:09:20;;;;;;;8.82;3.88;;;;;;;;;;6336996;22;20042;-96
2022/12/10 12:11:51;;;;;;;10.38;4.35;;;;;;;;;;6337418;22;20081;-96
2022/12/10 12:14:20;;;;;;;12.75;4.70;;;;;;;;;;6337034;22;19999;-96
2022/12/10 12:16:51;;;;;;;12.05;4.90;;;;;;;;;;6311421;22;20095;-95
2022/12/10 12:19:16;;;;;;;10.27;4.68;;;;;;;;;;6337226;22;20009;-96
2022/12/10 12:21:43;;;;;;;11.77;4.60;;;;;;;;;;6336006;22;20504;-96
2022/12/10 12:24:17;;;;;;;10.45;4.50;;;;;;;;;;6310059;22;20230;-95
2022/12/10 12:26:46;;;;;;;10.00;4.18;;;;;;;;;;6337615;22;20018;-93
2022/12/10 12:29:15;;;;;;;10.93;4.57;;;;;;;;;;6309327;22;20006;-95
2022/12/10 12:31:41;;;;;;;10.70;3.95;;;;;;;;;;6310507;22;20010;-94
2022/12/10 12:34:16;;;;;;;11.23;4.80;;;;;;;;;;6327855;22;20017;-95
2022/12/10 12:37:10;;;;;;;13.60;5.93;;;;;;;;;;6355291;22;20037;-94
2022/12/10 12:39:58;;;;;;;19.67;7.95;;;;;;;;;;6304768;22;20010;-95
2022/12/10 12:42:30;;;;;;;19.70;8.00;;;;;;;;;;6312510;22;20421;-94
2022/12/10 12:45:08;;;;;;;17.38;7.65;;;;;;;;;;6325630;22;20009;-94
2022/12/10 12:47:53;;;;;;;17.20;8.00;;;;;;;;;;6323725;22;20053;-94
2022/12/10 12:50:40;;;;;;;17.77;7.43;;;;;;;;;;6308633;22;20505;-93
2022/12/10 12:53:08;;;;;;;15.75;7.30;;;;;;;;;;6307427;22;20321;-92
2022/12/10 12:55:43;;;;;;;17.58;7.13;;;;;;;;;;6335558;22;20069;-92
2022/12/10 12:58:14;;;;;;;15.95;6.80;;;;;;;;;;6306974;22;20013;-92
2022/12/10 13:00:42;;;;;;;14.98;6.72;;;;;;;;;;6333643;22;20060;-93
2022/12/10 13:03:26;;;;;;;13.95;6.35;;;;;;;;;;6305233;22;20038;-92
2022/12/10 13:05:51;;;;;;;16.55;7.05;;;;;;;;;;6305938;22;20011;-94
2022/12/10 13:08:17;;;;;;;12.80;6.20;;;;;;;;;;6307303;22;20133;-92
2022/12/10 13:10:54;;;;;;;12.52;5.85;;;;;;;;;;6333311;22;20909;-93
2022/12/10 13:13:34;;;;;;;10.98;5.22;;;;;;;;;;6332529;22;20006;-93
2022/12/10 13:16:32;;;;;;;14.85;6.40;;;;;;;;;;6305872;22;20489;-94
2022/12/10 13:19:16;;;;;;;15.68;6.65;;;;;;;;;;6177194;23;20044;-93
2022/12/10 13:45:01;;;;;;;15.07;7.18;;;;;;;;;;6035961;23;20120;-96
2022/12/10 13:47:31;;;;;;;15.05;6.63;;;;;;;;;;6036896;23;20015;-95
2022/12/10 13:50:00;;;;;;;16.60;6.40;;;;;;;;;;6036900;23;20015;-93
2022/12/10 13:52:46;;;;;;;15.70;6.38;;;;;;;;;;6036994;23;20785;-94
2022/12/10 13:55:30;;;;;;;15.02;5.93;;;;;;;;;;6078651;23;20014;-94
2022/12/10 13:58:09;;;;;;;14.05;5.72;;;;;;;;;;6068092;23;20017;-94
2022/12/10 14:00:41;;;;;;;12.98;5.13;;;;;;;;;;6069344;23;20054;-95
2022/12/10 14:03:21;;;;;;;14.68;5.25;;;;;;;;;;6150482;23;20608;-95
2022/12/10 14:05:54;;;;;;;15.30;5.65;;;;;;;;;;6282372;22;20045;-94
2022/12/10 14:08:23;;;;;;;11.73;4.97;;;;;;;;;;6311045;22;20009;-93
2022/12/10 14:10:52;;;;;;;12.32;5.35;;;;;;;;;;6312489;22;20011;-94
2022/12/10 14:13:20;;;;;;;14.50;5.13;;;;;;;;;;6312536;22;20003;-94
2022/12/10 14:15:54;;;;;;;13.25;5.70;;;;;;;;;;6312928;22;20005;-95
2022/12/10 14:18:22;;;;;;;12.05;4.72;;;;;;;;;;6310876;22;20010;-92
2022/12/10 14:20:48;;;;;;;13.57;5.05;;;;;;;;;;6336896;22;20048;-94
2022/12/10 14:23:35;;;;;;;11.57;5.20;;;;;;;;;;6311524;22;20017;-94
2022/12/10 14:26:11;;;;;;;12.52;5.00;;;;;;;;;;6309393;22;20003;-92
2022/12/10 14:28:47;;;;;;;11.30;5.47;;;;;;;;;;6309407;22;20543;-92
2022/12/10 14:31:25;;;;;;;13.05;5.75;;;;;;;;;;6304810;22;20038;-92
2022/12/10 14:33:51;;;;;;;13.25;6.28;;;;;;;;;;6306823;22;20014;-93
2022/12/10 14:36:26;;;;;;;12.13;4.85;;;;;;;;;;6336930;22;20006;-94
2022/12/10 14:38:51;;;;;;;13.00;5.25;;;;;;;;;;6309299;22;19999;-96
2022/12/10 14:41:20;;;;;;;18.27;7.00;;;;;;;;;;6311233;22;20079;-95
2022/12/10 14:43:45;;;;;;;18.88;7.05;;;;;;;;;;6311624;22;19995;-93
2022/12/10 14:46:16;;;;;;;17.42;6.63;;;;;;;;;;6307968;22;20075;-94
2022/12/10 14:52:21;;;;;;;15.88;6.28;;;;;;;;;;6337537;22;20029;-93
2022/12/10 14:54:47;;;;;;;14.18;6.50;;;;;;;;;;6275591;22;20104;-93
2022/12/10 14:57:16;;;;;;;14.45;6.22;;;;;;;;;;6277983;22;20070;-92
2022/12/10 14:59:45;;;;;;;15.35;6.72;;;;;;;;;;6336682;22;20772;-92
2022/12/10 15:02:24;;;;;;;15.02;6.53;;;;;;;;;;6309496;22;20007;-93
2022/12/10 15:04:50;;;;;;;13.88;6.05;;;;;;;;;;6334604;22;20007;-93
2022/12/10 15:07:22;;;;;;;16.27;6.30;;;;;;;;;;6305510;22;20404;-94
2022/12/10 15:09:49;;;;;;;16.43;6.47;;;;;;;;;;6335487;22;20006;-93
2022/12/10 15:12:35;;;;;;;14.18;6.32;;;;;;;;;;6304851;22;20054;-93
2022/12/10 15:15:16;;;;;;;13.60;6.07;;;;;;;;;;6331787;22;20002;-93
2022/12/10 15:17:52;;;;;;;12.93;6.15;;;;;;;;;;6308257;22;20017;-93
2022/12/10 15:20:23;;;;;;;14.23;5.90;;;;;;;;;;6332089;22;20006;-92
2022/12/10 15:22:49;;;;;;;15.15;7.00;;;;;;;;;;6304907;22;20006;-92